createdAt,value
2023-07-10T00:01:15.906Z,100.00
2023-07-10T00:04:14.782Z,100.00
2023-07-10T00:06:59.901Z,100.00
2023-07-10T00:09:51.750Z,100.00
2023-07-10T00:12:36.926Z,100.00
2023-07-10T00:15:29.764Z,100.00
2023-07-10T00:18:16.576Z,100.00
2023-07-10T00:21:07.752Z,100.00
2023-07-10T00:23:52.435Z,100.00
2023-07-10T00:26:45.754Z,100.00
2023-07-10T00:29:33.096Z,100.00
2023-07-10T00:32:24.785Z,100.00
2023-07-10T00:35:09.979Z,100.00
2023-07-10T00:38:09.763Z,100.00
2023-07-10T00:40:55.431Z,100.00
2023-07-10T00:43:53.768Z,100.00
2023-07-10T00:47:02.818Z,100.00
2023-07-10T00:50:00.770Z,100.00
2023-07-10T00:52:54.781Z,100.00
2023-07-10T00:55:46.756Z,100.00
2023-07-10T00:58:46.794Z,100.00
2023-07-10T01:01:31.833Z,100.00
2023-07-10T01:04:29.768Z,100.00
2023-07-10T01:07:24.778Z,100.00
2023-07-10T01:10:17.782Z,100.00
2023-07-10T01:13:02.926Z,100.00
2023-07-10T01:15:54.786Z,100.00
2023-07-10T01:18:41.998Z,100.00
2023-07-10T01:21:37.807Z,100.00
2023-07-10T01:24:22.913Z,100.00
2023-07-10T01:27:19.794Z,100.00
2023-07-10T01:30:15.151Z,100.00
2023-07-10T01:33:07.762Z,100.00
2023-07-10T01:35:56.146Z,100.00
2023-07-10T01:39:01.811Z,100.00
2023-07-10T01:41:53.792Z,100.00
2023-07-10T01:44:41.441Z,100.00
2023-07-10T01:47:32.872Z,100.00
2023-07-10T01:50:18.239Z,100.00
2023-07-10T01:53:10.802Z,100.00
2023-07-10T01:55:55.916Z,100.00
2023-07-10T01:58:47.776Z,100.00
2023-07-10T02:01:42.452Z,100.00
2023-07-10T02:04:34.927Z,100.00
2023-07-10T02:07:26.813Z,100.00
2023-07-10T02:10:20.824Z,100.00
2023-07-10T02:13:07.150Z,100.00
2023-07-10T02:15:58.796Z,100.00
2023-07-10T02:18:50.794Z,100.00
2023-07-10T02:21:35.571Z,100.00
2023-07-10T02:24:26.788Z,100.00
2023-07-10T02:27:11.644Z,100.00
2023-07-10T02:30:03.022Z,100.00
2023-07-10T02:32:47.964Z,100.00
2023-07-10T02:35:39.819Z,100.00
2023-07-10T02:38:25.027Z,100.00
2023-07-10T02:41:16.804Z,100.00
2023-07-10T02:44:01.622Z,100.00
2023-07-10T02:46:52.808Z,100.00
2023-07-10T02:49:37.893Z,100.00
2023-07-10T02:52:29.825Z,100.00
2023-07-10T02:55:14.873Z,100.00
2023-07-10T02:58:08.074Z,100.00
2023-07-10T03:00:58.782Z,100.00
2023-07-10T03:03:57.810Z,100.00
2023-07-10T03:06:42.896Z,100.00
2023-07-10T03:09:33.808Z,100.00
2023-07-10T03:12:18.824Z,100.00
2023-07-10T03:15:11.826Z,100.00
2023-07-10T03:17:57.044Z,100.00
2023-07-10T03:20:47.827Z,100.00
2023-07-10T03:23:32.762Z,100.00
2023-07-10T03:26:23.883Z,100.00
2023-07-10T03:29:18.828Z,100.00
2023-07-10T03:32:04.381Z,100.00
2023-07-10T03:34:56.846Z,100.00
2023-07-10T03:37:42.009Z,100.00
2023-07-10T03:40:32.820Z,100.00
2023-07-10T03:43:17.692Z,100.00
2023-07-10T03:46:08.835Z,100.00
2023-07-10T03:48:53.744Z,100.00
2023-07-10T03:51:44.849Z,100.00
2023-07-10T03:54:33.446Z,100.00
2023-07-10T03:57:24.848Z,100.00
2023-07-10T04:00:16.851Z,100.00
2023-07-10T04:03:14.959Z,100.00
2023-07-10T04:06:15.897Z,100.00
2023-07-10T04:09:07.851Z,100.00
2023-07-10T04:11:52.739Z,100.00
2023-07-10T04:14:45.844Z,100.00
2023-07-10T04:17:31.617Z,100.00
2023-07-10T04:20:24.837Z,100.00
2023-07-10T04:23:16.154Z,100.00
2023-07-10T04:26:08.076Z,100.00
2023-07-10T04:28:56.289Z,100.00
2023-07-10T04:31:47.906Z,100.00
2023-07-10T04:34:35.808Z,100.00
2023-07-10T04:37:26.863Z,100.00
2023-07-10T04:40:12.593Z,100.00
2023-07-10T04:43:04.048Z,100.00
2023-07-10T04:45:50.305Z,100.00
2023-07-10T04:48:41.952Z,100.00
2023-07-10T04:51:27.233Z,100.00
2023-07-10T04:54:18.890Z,100.00
2023-07-10T04:57:13.059Z,100.00
2023-07-10T04:59:58.436Z,100.00
2023-07-10T05:02:50.214Z,100.00
2023-07-10T05:05:35.365Z,100.00
2023-07-10T05:08:29.879Z,100.00
2023-07-10T05:11:15.829Z,100.00
2023-07-10T05:14:07.883Z,100.00
2023-07-10T05:16:53.767Z,100.00
2023-07-10T05:19:47.113Z,100.00
2023-07-10T05:22:32.112Z,100.00
2023-07-10T05:25:23.871Z,100.00
2023-07-10T05:28:15.891Z,100.00
2023-07-10T05:31:08.871Z,100.00
2023-07-10T05:33:59.879Z,100.00
2023-07-10T05:36:44.704Z,100.00
2023-07-10T05:39:37.107Z,100.00
2023-07-10T05:42:22.375Z,100.00
2023-07-10T05:45:14.921Z,100.00
2023-07-10T05:48:00.050Z,100.00
2023-07-10T05:50:54.883Z,100.00
2023-07-10T05:53:45.880Z,100.00
2023-07-10T05:56:32.286Z,100.00
2023-07-10T05:59:23.865Z,100.00
2023-07-10T06:02:17.992Z,100.00
2023-07-10T06:05:16.898Z,100.00
2023-07-10T06:08:01.887Z,100.00
2023-07-10T06:10:53.921Z,100.00
2023-07-10T06:13:38.824Z,100.00
2023-07-10T06:16:30.896Z,100.00
2023-07-10T06:19:17.941Z,100.00
2023-07-10T06:22:18.915Z,100.00
2023-07-10T06:25:04.315Z,100.00
2023-07-10T06:27:55.898Z,100.00
2023-07-10T06:30:43.685Z,100.00
2023-07-10T06:33:37.898Z,100.00
2023-07-10T06:36:28.914Z,100.00
2023-07-10T06:39:13.991Z,100.00
2023-07-10T06:42:04.913Z,100.00
2023-07-10T06:44:49.987Z,100.00
2023-07-10T06:47:47.955Z,100.00
2023-07-10T06:50:32.850Z,100.00
2023-07-10T06:53:27.386Z,100.00
2023-07-10T06:56:19.900Z,100.00
2023-07-10T06:59:04.751Z,100.00
2023-07-10T07:01:56.024Z,100.00
2023-07-10T07:04:48.930Z,100.00
2023-07-10T07:07:41.918Z,100.00
2023-07-10T07:10:26.961Z,100.00
2023-07-10T07:13:21.424Z,100.00
2023-07-10T07:16:12.927Z,100.00
2023-07-10T07:19:06.776Z,100.00
2023-07-10T07:22:05.908Z,100.00
2023-07-10T07:24:57.925Z,100.00
2023-07-10T07:27:43.169Z,100.00
2023-07-10T07:30:34.934Z,100.00
2023-07-10T07:33:21.448Z,100.00
2023-07-10T07:36:12.943Z,100.00
2023-07-10T07:38:57.662Z,100.00
2023-07-10T07:41:48.921Z,100.00
2023-07-10T07:44:33.868Z,100.00
2023-07-10T07:47:25.960Z,100.00
2023-07-10T07:50:11.053Z,100.00
2023-07-10T07:53:02.951Z,100.00
2023-07-10T07:55:48.073Z,100.00
2023-07-10T07:58:39.932Z,100.00
2023-07-10T08:01:25.173Z,100.00
2023-07-10T08:04:25.992Z,100.00
2023-07-10T08:07:18.043Z,100.00
2023-07-10T08:10:11.926Z,100.00
2023-07-10T08:13:03.937Z,100.00
2023-07-10T08:15:55.935Z,97.88
2023-07-10T08:18:42.076Z,88.93
2023-07-10T08:21:33.931Z,90.83
2023-07-10T08:24:18.817Z,85.76
2023-07-10T08:27:10.956Z,81.32
2023-07-10T08:29:56.175Z,75.78
2023-07-10T08:32:48.018Z,69.99
2023-07-10T08:35:33.219Z,73.86
2023-07-10T08:38:24.971Z,66.93
2023-07-10T08:41:22.007Z,75.64
2023-07-10T08:44:16.994Z,82.70
2023-07-10T08:47:11.745Z,86.34
2023-07-10T08:50:38.964Z,89.30
2023-07-10T08:53:34.950Z,72.43
2023-07-10T08:56:34.168Z,64.25
2023-07-10T08:59:34.985Z,60.11
2023-07-10T09:02:55.991Z,60.00
2023-07-10T09:05:53.972Z,63.86
2023-07-10T09:08:39.535Z,63.20
2023-07-10T09:11:32.971Z,69.40
2023-07-10T09:14:33.346Z,60.44
2023-07-10T09:17:44.000Z,56.83
2023-07-10T09:20:29.049Z,61.90
2023-07-10T09:23:32.095Z,67.49
2023-07-10T09:26:26.982Z,58.28
2023-07-10T09:29:11.772Z,53.75
2023-07-10T09:32:12.123Z,50.53
2023-07-10T09:35:00.571Z,50.01
2023-07-10T09:37:58.054Z,45.00
2023-07-10T09:40:48.603Z,45.81
2023-07-10T09:43:40.983Z,46.98
2023-07-10T09:46:38.100Z,48.35
2023-07-10T09:49:24.594Z,51.30
2023-07-10T09:52:28.999Z,53.92
2023-07-10T09:55:16.705Z,49.48
2023-07-10T09:58:10.004Z,46.68
2023-07-10T10:00:55.001Z,49.15
2023-07-10T10:03:51.003Z,47.92
2023-07-10T10:06:43.842Z,54.00
2023-07-10T10:09:37.038Z,52.58
2023-07-10T10:12:33.987Z,52.79
2023-07-10T10:15:37.355Z,49.25
2023-07-10T10:18:43.212Z,45.01
2023-07-10T10:21:32.943Z,47.67
2023-07-10T10:24:25.002Z,47.35
2023-07-10T10:27:41.234Z,48.75
2023-07-10T10:30:41.998Z,48.43
2023-07-10T10:34:00.028Z,52.50
2023-07-10T10:37:04.338Z,47.14
2023-07-10T10:40:04.999Z,46.97
2023-07-10T10:43:05.184Z,42.73
2023-07-10T10:46:08.283Z,44.79
2023-07-10T10:49:29.026Z,44.71
2023-07-10T10:52:24.369Z,45.68
2023-07-10T10:55:41.019Z,43.11
2023-07-10T10:58:43.129Z,43.43
2023-07-10T11:01:43.157Z,43.83
2023-07-10T11:04:41.077Z,46.16
2023-07-10T11:07:40.049Z,46.08
2023-07-10T11:10:37.192Z,44.48
2023-07-10T11:13:42.083Z,42.75
2023-07-10T11:16:37.078Z,43.83
2023-07-10T11:19:28.371Z,43.35
2023-07-10T11:22:35.058Z,42.37
2023-07-10T11:25:39.481Z,42.28
2023-07-10T11:28:37.052Z,45.29
2023-07-10T11:31:38.125Z,50.29
2023-07-10T11:34:23.097Z,44.80
2023-07-10T11:37:41.053Z,44.40
2023-07-10T11:40:29.241Z,49.78
2023-07-10T11:43:33.045Z,55.15
2023-07-10T11:46:24.068Z,55.73
2023-07-10T11:49:25.043Z,53.28
2023-07-10T11:52:23.064Z,54.86
2023-07-10T11:55:12.744Z,57.82
2023-07-10T11:58:34.067Z,57.78
2023-07-10T12:01:28.243Z,58.31
2023-07-10T12:04:26.496Z,60.27
2023-07-10T12:07:25.082Z,59.54
2023-07-10T12:10:12.416Z,54.86
2023-07-10T12:13:05.071Z,55.42
2023-07-10T12:15:53.498Z,57.05
2023-07-10T12:18:48.268Z,53.83
2023-07-10T12:21:40.079Z,55.49
2023-07-10T12:24:31.070Z,57.32
2023-07-10T12:30:22.068Z,65.16
2023-07-10T12:33:43.080Z,62.45
2023-07-10T12:36:34.735Z,57.42
2023-07-10T12:39:27.081Z,55.57
2023-07-10T12:42:35.426Z,55.53
2023-07-10T12:45:36.070Z,54.27
2023-07-10T12:48:28.088Z,56.27
2023-07-10T12:51:36.090Z,52.89
2023-07-10T12:54:36.074Z,53.31
2023-07-10T12:57:30.576Z,54.26
2023-07-10T13:00:22.081Z,58.27
2023-07-10T13:03:26.341Z,59.09
2023-07-10T13:06:25.111Z,61.45
2023-07-10T13:09:30.119Z,57.96
2023-07-10T13:12:22.066Z,59.29
2023-07-10T13:15:15.082Z,57.56
2023-07-10T13:18:01.293Z,60.34
2023-07-10T13:20:53.103Z,56.64
2023-07-10T13:23:37.820Z,55.13
2023-07-10T13:26:31.098Z,54.62
2023-07-10T13:29:16.136Z,56.92
2023-07-10T13:32:08.152Z,52.34
2023-07-10T13:34:53.164Z,54.04
2023-07-10T13:37:45.102Z,55.86
2023-07-10T13:40:38.128Z,57.83
2023-07-10T13:43:30.118Z,56.52
2023-07-10T13:46:29.826Z,56.49
2023-07-10T13:49:21.119Z,55.78
2023-07-10T13:52:06.730Z,58.76
2023-07-10T13:55:00.166Z,54.65
2023-07-10T13:57:45.643Z,52.56
2023-07-10T14:00:37.149Z,53.65
2023-07-10T14:03:33.126Z,53.19
2023-07-10T14:06:45.112Z,52.01
2023-07-10T14:09:38.125Z,52.20
2023-07-10T14:12:33.163Z,52.91
2023-07-10T14:15:27.123Z,52.76
2023-07-10T14:18:24.099Z,54.54
2023-07-10T14:21:19.108Z,52.57
2023-07-10T14:24:04.495Z,54.23
2023-07-10T14:26:57.115Z,54.26
2023-07-10T14:29:42.471Z,53.51
2023-07-10T14:32:34.150Z,53.56
2023-07-10T14:35:20.987Z,56.07
2023-07-10T14:38:39.171Z,54.99
2023-07-10T14:41:25.470Z,56.73
2023-07-10T14:44:17.144Z,53.43
2023-07-10T14:47:07.684Z,55.25
2023-07-10T14:50:00.225Z,52.65
2023-07-10T14:52:52.212Z,52.05
2023-07-10T14:55:43.144Z,54.25
2023-07-10T14:58:38.309Z,54.86
2023-07-10T15:01:23.346Z,53.32
2023-07-10T15:04:15.302Z,53.82
2023-07-10T15:07:14.165Z,54.77
2023-07-10T15:10:00.430Z,53.10
2023-07-10T15:12:53.152Z,53.16
2023-07-10T15:15:38.469Z,53.56
2023-07-10T15:18:32.217Z,55.18
2023-07-10T15:21:20.447Z,53.67
2023-07-10T15:24:27.486Z,53.75
2023-07-10T15:27:19.160Z,56.43
2023-07-10T15:30:04.211Z,55.60
2023-07-10T15:32:57.217Z,55.91
2023-07-10T15:35:42.674Z,54.92
2023-07-10T15:38:34.157Z,54.20
2023-07-10T15:41:32.177Z,53.79
2023-07-10T15:44:17.044Z,55.72
2023-07-10T15:47:08.279Z,55.87
2023-07-10T15:49:53.586Z,54.89
2023-07-10T15:52:49.179Z,54.49
2023-07-10T15:55:35.912Z,56.00
2023-07-10T15:58:31.309Z,54.72
2023-07-10T16:01:19.835Z,53.92
2023-07-10T16:04:38.161Z,54.53
2023-07-10T16:07:23.081Z,53.58
2023-07-10T16:10:19.190Z,53.10
2023-07-10T16:13:16.166Z,54.82
2023-07-10T16:16:08.218Z,55.65
2023-07-10T16:18:53.362Z,56.45
2023-07-10T16:21:46.201Z,56.66
2023-07-10T16:24:38.192Z,55.77
2023-07-10T16:27:23.067Z,58.75
2023-07-10T16:30:20.191Z,57.40
2023-07-10T16:33:11.769Z,57.49
2023-07-10T16:36:03.178Z,57.85
2023-07-10T16:38:54.197Z,58.37
2023-07-10T16:41:39.374Z,57.54
2023-07-10T16:44:31.203Z,55.30
2023-07-10T16:47:18.602Z,58.97
2023-07-10T16:50:10.201Z,57.62
2023-07-10T16:53:01.212Z,57.72
2023-07-10T16:55:46.503Z,57.25
2023-07-10T16:58:40.194Z,57.18
2023-07-10T17:01:27.643Z,57.40
2023-07-10T17:04:19.271Z,59.38
2023-07-10T17:07:11.416Z,57.36
2023-07-10T17:10:03.199Z,56.89
2023-07-10T17:12:48.704Z,60.04
2023-07-10T17:15:40.197Z,60.91
2023-07-10T17:18:36.204Z,62.95
2023-07-10T17:21:21.583Z,59.64
2023-07-10T17:24:26.222Z,60.88
2023-07-10T17:27:11.421Z,63.05
2023-07-10T17:30:03.200Z,60.31
2023-07-10T17:32:48.659Z,60.35
2023-07-10T17:35:40.195Z,62.32
2023-07-10T17:38:25.309Z,66.48
2023-07-10T17:41:27.222Z,60.21
2023-07-10T17:44:34.046Z,58.57
2023-07-10T17:47:26.250Z,62.01
2023-07-10T17:50:16.666Z,59.49
2023-07-10T17:53:08.214Z,62.93
2023-07-10T17:56:05.209Z,65.26
2023-07-10T17:58:56.235Z,61.79
2023-07-10T18:01:42.392Z,64.42
2023-07-10T18:04:34.229Z,66.71
2023-07-10T18:07:32.250Z,66.83
2023-07-10T18:10:17.151Z,69.50
2023-07-10T18:13:08.237Z,63.43
2023-07-10T18:15:53.486Z,72.70
2023-07-10T18:18:46.268Z,72.40
2023-07-10T18:21:38.212Z,74.00
2023-07-10T18:24:25.181Z,70.86
2023-07-10T18:27:25.238Z,67.73
2023-07-10T18:30:20.381Z,67.30
2023-07-10T18:33:14.029Z,68.56
2023-07-10T18:36:05.253Z,72.88
2023-07-10T18:38:50.022Z,70.42
2023-07-10T18:41:42.268Z,73.48
2023-07-10T18:44:27.223Z,77.27
2023-07-10T18:47:20.266Z,78.93
2023-07-10T18:50:13.257Z,79.92
2023-07-10T18:52:58.401Z,70.41
2023-07-10T18:55:51.255Z,69.20
2023-07-10T18:58:36.303Z,78.99
2023-07-10T19:01:28.322Z,76.80
2023-07-10T19:04:19.277Z,81.85
2023-07-10T19:07:20.335Z,82.55
2023-07-10T19:10:05.841Z,85.45
2023-07-10T19:12:57.246Z,83.53
2023-07-10T19:15:43.676Z,85.34
2023-07-10T19:18:40.494Z,86.66
2023-07-10T19:21:26.422Z,85.91
2023-07-10T19:24:28.428Z,89.22
2023-07-10T19:27:13.365Z,89.08
2023-07-10T19:30:05.291Z,89.22
2023-07-10T19:32:57.265Z,86.39
2023-07-10T19:35:42.236Z,90.85
2023-07-10T19:38:36.339Z,93.99
2023-07-10T19:41:21.570Z,93.79
2023-07-10T19:44:13.260Z,93.56
2023-07-10T19:46:58.195Z,91.96
2023-07-10T19:49:50.274Z,93.72
2023-07-10T19:52:35.469Z,94.96
2023-07-10T19:55:28.277Z,100.00
2023-07-10T19:58:14.977Z,99.36
2023-07-10T20:01:06.336Z,99.95
2023-07-10T20:03:57.772Z,98.22
2023-07-10T20:06:56.311Z,100.00
2023-07-10T20:09:41.031Z,100.00
2023-07-10T20:12:32.300Z,100.00
2023-07-10T20:15:17.270Z,100.00
2023-07-10T20:18:08.321Z,100.00
2023-07-10T20:20:54.165Z,100.00
2023-07-10T20:23:46.342Z,100.00
2023-07-10T20:26:37.309Z,100.00
2023-07-10T20:29:29.291Z,100.00
2023-07-10T20:32:14.736Z,100.00
2023-07-10T20:35:06.345Z,100.00
2023-07-10T20:37:51.894Z,100.00
2023-07-10T20:40:43.290Z,100.00
2023-07-10T20:43:29.156Z,100.00
2023-07-10T20:46:26.346Z,100.00
2023-07-10T20:49:29.301Z,100.00
2023-07-10T20:55:08.312Z,100.00
2023-07-10T20:57:53.459Z,100.00
2023-07-10T21:00:45.316Z,100.00
2023-07-10T21:03:37.417Z,100.00
2023-07-10T21:06:36.384Z,100.00
2023-07-10T21:09:34.320Z,100.00
2023-07-10T21:12:27.328Z,100.00
2023-07-10T21:15:14.569Z,100.00
2023-07-10T21:18:06.349Z,100.00
2023-07-10T21:20:52.182Z,100.00
2023-07-10T21:23:44.345Z,100.00
2023-07-10T21:26:32.337Z,100.00
2023-07-10T21:29:24.317Z,100.00
2023-07-10T21:32:19.414Z,100.00
2023-07-10T21:35:35.317Z,100.00
2023-07-10T21:38:23.010Z,100.00
2023-07-10T21:41:36.326Z,100.00
2023-07-10T21:44:23.725Z,100.00
2023-07-10T21:47:18.360Z,100.00
2023-07-10T21:50:22.351Z,100.00
2023-07-10T21:53:07.475Z,100.00
2023-07-10T21:56:04.551Z,100.00
2023-07-10T21:58:55.712Z,100.00
2023-07-10T22:01:47.333Z,100.00
2023-07-10T22:04:38.328Z,100.00
2023-07-10T22:07:36.346Z,100.00
2023-07-10T22:10:21.275Z,100.00
2023-07-10T22:13:21.356Z,100.00
2023-07-10T22:16:13.334Z,100.00
2023-07-10T22:19:00.733Z,100.00
2023-07-10T22:21:52.333Z,100.00
2023-07-10T22:24:37.628Z,100.00
2023-07-10T22:27:29.341Z,100.00
2023-07-10T22:30:14.444Z,100.00
2023-07-10T22:33:08.357Z,100.00
2023-07-10T22:35:53.341Z,100.00
2023-07-10T22:38:45.342Z,100.00
2023-07-10T22:41:35.758Z,100.00
2023-07-10T22:44:28.359Z,100.00
2023-07-10T22:47:13.514Z,100.00
2023-07-10T22:50:05.364Z,100.00
2023-07-10T22:52:50.670Z,100.00
2023-07-10T22:55:43.369Z,100.00
2023-07-10T22:58:28.500Z,100.00
2023-07-10T23:01:21.357Z,100.00
2023-07-10T23:04:12.412Z,100.00
2023-07-10T23:07:11.331Z,100.00
2023-07-10T23:10:05.394Z,100.00
2023-07-10T23:12:50.439Z,100.00
2023-07-10T23:15:41.381Z,100.00
2023-07-10T23:18:26.551Z,100.00
2023-07-10T23:21:18.348Z,100.00
2023-07-10T23:24:05.789Z,100.00
2023-07-10T23:26:57.345Z,100.00
2023-07-10T23:29:42.483Z,100.00
2023-07-10T23:32:38.374Z,100.00
2023-07-10T23:35:24.428Z,100.00
2023-07-10T23:38:16.344Z,100.00
2023-07-10T23:41:01.413Z,100.00
2023-07-10T23:43:53.347Z,100.00
2023-07-10T23:46:38.481Z,100.00
2023-07-10T23:49:29.368Z,100.00
2023-07-10T23:52:14.516Z,100.00
2023-07-10T23:55:05.371Z,100.00
2023-07-10T23:57:50.881Z,100.00
